Time;durP1;ratioP1;P1;durP2;ratioP2;P2;SDS_P1;SDS_P2;PMS_P1;PMS_P2;Temp;Humidity;BMP_temperature;BMP_pressure;BME280_temperature;BME280_humidity;BME280_pressure;Samples;Min_cycle;Max_cycle;Signal;HPM_P1;HPM_P2
2023/12/25 00:00:18;;;;;;;53.13;30.90;;;205.70;2252.80;;;;;;5068277;28;20024;-63
2023/12/25 00:02:44;;;;;;;33.42;20.33;;;230.40;2252.80;;;;;;5068323;28;20013;-64
2023/12/25 00:05:10;;;;;;;69.07;39.88;;;230.50;2252.80;;;;;;5068317;28;20486;-64
2023/12/25 00:07:35;;;;;;;45.75;22.58;;;230.50;2252.80;;;;;;5068585;28;20478;-63
2023/12/25 00:10:01;;;;;;;78.88;44.97;;;230.60;2252.80;;;;;;5050558;28;20391;-63
2023/12/25 00:12:27;;;;;;;89.95;43.72;;;230.90;2252.80;;;;;;5067928;28;20027;-63
2023/12/25 00:14:53;;;;;;;57.22;30.60;;;231.00;2252.80;;;;;;5068316;28;20037;-63
2023/12/25 00:17:18;;;;;;;31.17;18.50;;;231.00;2252.80;;;;;;5068199;28;20013;-68
2023/12/25 00:19:44;;;;;;;20.48;11.95;;;231.10;2252.80;;;;;;5071214;28;20393;-63
2023/12/25 00:22:10;;;;;;;31.25;18.20;;;231.00;2252.80;;;;;;5071896;28;20024;-63
2023/12/25 00:24:36;;;;;;;156.35;105.57;;;230.80;2252.80;;;;;;5071742;28;20027;-65
2023/12/25 00:27:01;;;;;;;96.15;60.35;;;230.60;2252.80;;;;;;5072170;28;20111;-64
2023/12/25 00:29:27;;;;;;;103.63;58.30;;;205.70;2252.80;;;;;;5071499;28;20109;-63
2023/12/25 00:31:53;;;;;;;113.15;71.38;;;205.70;2252.80;;;;;;5071814;28;20020;-64
2023/12/25 00:34:19;;;;;;;140.60;82.82;;;205.70;2252.80;;;;;;5071763;28;20024;-68
2023/12/25 00:36:45;;;;;;;83.80;50.35;;;205.70;2252.80;;;;;;5071460;28;20024;-63
2023/12/25 00:39:13;;;;;;;50.13;28.50;;;205.70;2252.80;;;;;;5071571;28;20925;-63
2023/12/25 00:41:39;;;;;;;34.22;21.23;;;230.40;2252.80;;;;;;5071525;28;20029;-63
2023/12/25 00:44:04;;;;;;;38.30;18.63;;;205.70;2252.80;;;;;;5071878;28;20116;-63
2023/12/25 00:46:30;;;;;;;19.08;12.63;;;230.40;2252.80;;;;;;5071584;28;20044;-66
2023/12/25 00:48:56;;;;;;;19.98;12.65;;;205.70;2252.80;;;;;;5071480;28;20462;-63
2023/12/25 00:51:23;;;;;;;34.67;21.20;;;205.70;2252.80;;;;;;5071157;28;20370;-67
2023/12/25 00:53:48;;;;;;;33.90;20.10;;;205.70;2252.80;;;;;;5071621;28;20024;-64
2023/12/25 00:56:14;;;;;;;20.33;11.73;;;205.70;2252.80;;;;;;5070987;28;20033;-67
2023/12/25 00:58:40;;;;;;;15.27;8.48;;;205.50;2252.80;;;;;;5071250;28;20024;-63
2023/12/25 01:01:05;;;;;;;16.58;10.10;;;205.50;2252.80;;;;;;5071503;28;20024;-63
2023/12/25 01:03:31;;;;;;;21.58;11.50;;;205.50;2252.80;;;;;;5071053;28;20028;-63
2023/12/25 01:05:57;;;;;;;65.43;39.33;;;205.50;2252.80;;;;;;5070838;28;20020;-63
2023/12/25 01:08:23;;;;;;;23.80;13.90;;;205.50;2252.80;;;;;;5073696;28;20028;-63
2023/12/25 01:10:48;;;;;;;19.85;10.43;;;205.40;2252.80;;;;;;5075388;28;20048;-63
2023/12/25 01:13:14;;;;;;;10.05;6.72;;;205.30;2252.80;;;;;;5074968;28;20051;-63
2023/12/25 01:15:40;;;;;;;19.55;10.82;;;205.20;2252.80;;;;;;5075121;28;20102;-63
2023/12/25 01:18:06;;;;;;;37.55;16.38;;;205.40;2252.80;;;;;;5075193;28;20049;-64
2023/12/25 01:20:31;;;;;;;30.00;12.05;;;205.40;2252.80;;;;;;5075366;28;20028;-63
2023/12/25 01:22:57;;;;;;;76.47;47.72;;;205.40;2252.80;;;;;;5075064;28;20028;-63
2023/12/25 01:25:23;;;;;;;157.85;89.10;;;205.30;2252.80;;;;;;5074819;28;20025;-66
2023/12/25 01:27:49;;;;;;;182.05;97.70;;;205.30;2252.80;;;;;;5074748;28;20025;-70
2023/12/25 01:30:14;;;;;;;342.92;175.60;;;205.30;2252.80;;;;;;5074768;28;20021;-66
2023/12/25 01:32:40;;;;;;;37.38;22.92;;;205.30;2252.80;;;;;;5074658;28;20039;-67
2023/12/25 01:38:27;;;;;;;67.10;33.95;;;205.50;2252.80;;;;;;5074443;28;20047;-68
2023/12/25 01:40:53;;;;;;;46.28;26.33;;;205.50;2252.80;;;;;;5074524;28;20025;-63
2023/12/25 01:43:19;;;;;;;59.95;30.75;;;205.50;2252.80;;;;;;5074664;28;20082;-63
2023/12/25 01:45:45;;;;;;;12.25;5.40;;;205.50;2252.80;;;;;;5074780;28;20483;-62
2023/12/25 01:48:12;;;;;;;34.25;19.30;;;205.60;2252.80;;;;;;5067528;28;20377;-69
2023/12/25 01:50:39;;;;;;;65.38;38.90;;;205.60;2252.80;;;;;;5059935;28;20022;-66
2023/12/25 01:53:06;;;;;;;190.38;110.25;;;205.50;2252.80;;;;;;5056439;28;20036;-69
2023/12/25 01:55:32;;;;;;;108.93;62.90;;;205.50;2252.80;;;;;;5061476;28;20379;-64
2023/12/25 01:57:58;;;;;;;105.57;62.40;;;205.60;2252.80;;;;;;5055835;28;20021;-67
2023/12/25 02:00:23;;;;;;;84.60;48.95;;;205.40;2252.80;;;;;;5059876;28;20179;-67
2023/12/25 02:02:50;;;;;;;56.22;32.53;;;205.40;2252.80;;;;;;5054730;28;20027;-67
2023/12/25 02:05:16;;;;;;;55.60;31.65;;;205.40;2252.80;;;;;;5058222;28;20021;-64
2023/12/25 02:07:43;;;;;;;40.05;24.35;;;205.40;2252.80;;;;;;5053716;28;20033;-63
2023/12/25 02:10:09;;;;;;;25.17;17.58;;;205.50;2252.80;;;;;;5059990;28;20032;-63
2023/12/25 02:12:36;;;;;;;24.77;16.38;;;230.50;2252.80;;;;;;5070728;28;20446;-62
2023/12/25 02:15:03;;;;;;;56.85;33.72;;;230.40;2252.80;;;;;;5070378;28;20528;-63
2023/12/25 02:17:30;;;;;;;62.10;34.38;;;205.60;2252.80;;;;;;5070078;28;20070;-68
2023/12/25 02:19:57;;;;;;;110.50;59.22;;;205.60;2252.80;;;;;;5070125;28;20028;-63
2023/12/25 02:22:23;;;;;;;62.05;34.15;;;205.60;2252.80;;;;;;5070235;28;20021;-63
2023/12/25 02:24:58;;;;;;;86.53;52.13;;;205.60;2252.80;;;;;;5069772;28;20491;-63
2023/12/25 02:27:24;;;;;;;41.95;24.98;;;205.60;2252.80;;;;;;5070379;28;20415;-64
2023/12/25 02:29:50;;;;;;;77.07;38.20;;;205.60;2252.80;;;;;;5070277;28;20071;-63
2023/12/25 02:32:16;;;;;;;66.75;34.40;;;205.60;2252.80;;;;;;5070096;28;20073;-64
2023/12/25 02:34:44;;;;;;;56.03;31.13;;;205.70;2252.80;;;;;;5069637;28;20029;-62
2023/12/25 02:37:10;;;;;;;38.22;22.33;;;205.50;2252.80;;;;;;5069769;28;20021;-64
2023/12/25 02:39:36;;;;;;;71.80;42.85;;;205.40;2252.80;;;;;;5069525;28;20109;-64
2023/12/25 02:42:01;;;;;;;24.60;15.48;;;205.50;2252.80;;;;;;5069265;28;20066;-65
2023/12/25 02:44:27;;;;;;;52.67;30.75;;;205.60;2252.80;;;;;;5069581;28;20024;-67
2023/12/25 02:46:53;;;;;;;35.35;22.08;;;205.50;2252.80;;;;;;5070090;28;20082;-67
2023/12/25 02:49:18;;;;;;;49.10;28.98;;;205.50;2252.80;;;;;;5069561;28;20100;-68
2023/12/25 02:51:44;;;;;;;44.05;25.98;;;205.40;2252.80;;;;;;5070041;28;20016;-62
2023/12/25 02:54:10;;;;;;;57.20;34.58;;;205.40;2252.80;;;;;;5069441;28;20382;-63
2023/12/25 02:56:36;;;;;;;35.97;21.95;;;205.30;2252.80;;;;;;5069632;28;20085;-64
2023/12/25 02:59:01;;;;;;;37.78;21.60;;;205.30;2252.80;;;;;;5069851;28;20020;-64
2023/12/25 03:01:27;;;;;;;32.53;18.85;;;205.30;2252.80;;;;;;5069510;28;20432;-63
2023/12/25 03:03:53;;;;;;;33.58;17.67;;;205.40;2252.80;;;;;;5051751;28;20035;-64
2023/12/25 03:06:19;;;;;;;31.10;18.88;;;205.40;2252.80;;;;;;5069541;28;20028;-69
2023/12/25 03:08:44;;;;;;;27.50;17.08;;;205.30;2252.80;;;;;;5069439;28;20032;-63
2023/12/25 03:11:10;;;;;;;37.88;21.17;;;205.20;2252.80;;;;;;5069459;28;20398;-63
2023/12/25 03:13:36;;;;;;;16.30;10.80;;;205.20;2252.80;;;;;;5069292;28;20081;-65
2023/12/25 03:16:08;;;;;;;21.63;14.90;;;205.00;2252.80;;;;;;5069611;28;20432;-63
2023/12/25 03:18:34;;;;;;;23.60;16.38;;;205.00;2252.80;;;;;;5069284;28;20497;-64
2023/12/25 03:21:00;;;;;;;20.55;10.73;;;205.20;2252.80;;;;;;5069523;28;20025;-67
2023/12/25 03:23:25;;;;;;;22.08;15.85;;;205.20;2252.80;;;;;;5069503;28;20427;-64
2023/12/25 03:25:51;;;;;;;21.52;12.63;;;205.20;2252.80;;;;;;5069585;28;20024;-64
2023/12/25 03:28:17;;;;;;;17.08;9.25;;;205.30;2252.80;;;;;;5069243;28;20103;-64
2023/12/25 03:30:43;;;;;;;15.75;10.77;;;205.30;2252.80;;;;;;5069409;28;20382;-63
2023/12/25 03:33:08;;;;;;;17.17;11.52;;;205.30;2252.80;;;;;;5069330;28;20113;-63
2023/12/25 03:35:34;;;;;;;19.02;10.95;;;205.30;2252.80;;;;;;5069173;28;20569;-67
2023/12/25 03:38:00;;;;;;;10.35;6.03;;;205.50;2252.80;;;;;;5068709;28;20060;-63
2023/12/25 03:40:26;;;;;;;8.88;5.50;;;205.60;2252.80;;;;;;5069082;28;20032;-64
2023/12/25 03:42:54;;;;;;;15.75;7.63;;;205.50;2252.80;;;;;;5069429;28;20056;-63
2023/12/25 03:45:20;;;;;;;18.60;11.55;;;205.60;2252.80;;;;;;5069032;28;20032;-63
2023/12/25 03:47:46;;;;;;;12.90;6.53;;;205.60;2252.80;;;;;;5068909;28;20028;-63
2023/12/25 03:50:12;;;;;;;16.13;11.57;;;205.70;2252.80;;;;;;5069476;28;20032;-64
2023/12/25 03:52:38;;;;;;;25.70;14.65;;;205.50;2252.80;;;;;;5068841;28;20047;-63
2023/12/25 03:55:04;;;;;;;11.07;7.00;;;205.40;2252.80;;;;;;5072995;28;20044;-63
2023/12/25 03:57:30;;;;;;;18.85;11.38;;;205.30;2252.80;;;;;;5073138;28;20047;-63
2023/12/25 03:59:56;;;;;;;15.73;9.43;;;205.30;2252.80;;;;;;5073016;28;20466;-64
2023/12/25 04:02:21;;;;;;;19.83;10.02;;;205.20;2252.80;;;;;;5073111;28;20039;-64
2023/12/25 04:04:47;;;;;;;15.48;8.55;;;205.30;2252.80;;;;;;5072795;28;20021;-64
2023/12/25 04:07:14;;;;;;;9.82;6.63;;;205.30;2252.80;;;;;;5072840;28;20029;-64
2023/12/25 04:09:41;;;;;;;11.60;6.57;;;205.40;2252.80;;;;;;5081409;28;20020;-64
2023/12/25 04:12:07;;;;;;;13.77;7.78;;;205.50;2252.80;;;;;;5077162;28;20023;-64
2023/12/25 04:14:37;;;;;;;13.55;6.28;;;205.50;2252.80;;;;;;5072589;28;20409;-63
2023/12/25 04:17:03;;;;;;;7.95;4.53;;;205.60;2252.80;;;;;;5072622;28;20019;-63
2023/12/25 04:19:29;;;;;;;12.40;6.15;;;205.70;2252.80;;;;;;5072826;28;20033;-64
2023/12/25 04:21:55;;;;;;;11.85;6.35;;;205.70;2252.80;;;;;;5072761;28;20021;-70
2023/12/25 04:24:21;;;;;;;13.82;7.72;;;230.40;2252.80;;;;;;5072876;28;20462;-67
2023/12/25 04:26:46;;;;;;;13.95;7.18;;;230.40;2252.80;;;;;;5072122;28;21819;-63
2023/12/25 04:29:12;;;;;;;13.93;6.55;;;205.70;2252.80;;;;;;5072853;28;20116;-63
2023/12/25 04:31:38;;;;;;;12.80;6.72;;;205.70;2252.80;;;;;;5072312;28;20024;-63
2023/12/25 04:34:04;;;;;;;11.52;6.15;;;205.70;2252.80;;;;;;5072129;28;20128;-63
2023/12/25 04:36:29;;;;;;;12.85;7.57;;;205.70;2252.80;;;;;;5072328;28;20055;-63
2023/12/25 04:38:58;;;;;;;15.18;8.55;;;205.50;2252.80;;;;;;5071725;28;20090;-63
2023/12/25 04:41:24;;;;;;;15.18;7.35;;;205.40;2252.80;;;;;;5072428;28;20382;-67
2023/12/25 04:43:53;;;;;;;14.30;5.80;;;205.40;2252.80;;;;;;5072262;28;20550;-63
2023/12/25 04:46:20;;;;;;;8.30;5.20;;;205.40;2252.80;;;;;;5072299;28;20035;-63
2023/12/25 04:48:46;;;;;;;8.93;5.53;;;205.50;2252.80;;;;;;5053689;28;20445;-64
2023/12/25 04:51:12;;;;;;;28.33;17.45;;;205.50;2252.80;;;;;;5072052;28;20020;-62
2023/12/25 04:53:37;;;;;;;56.95;51.08;;;205.50;2252.80;;;;;;5071893;28;20024;-63
2023/12/25 04:56:04;;;;;;;11.05;5.38;;;205.60;2252.80;;;;;;5071664;28;20029;-64
2023/12/25 04:58:30;;;;;;;10.43;8.07;;;205.50;2252.80;;;;;;5071886;28;20060;-63
2023/12/25 05:00:55;;;;;;;16.17;8.85;;;205.60;2252.80;;;;;;5072184;28;20060;-63
2023/12/25 05:03:22;;;;;;;5.97;4.97;;;205.70;2252.80;;;;;;5071759;28;20104;-63
2023/12/25 05:05:50;;;;;;;8.98;4.13;;;230.40;2252.80;;;;;;5070596;28;20028;-63
2023/12/25 05:08:18;;;;;;;8.50;4.30;;;230.40;2252.80;;;;;;5071449;28;20493;-63
2023/12/25 05:10:44;;;;;;;12.23;6.40;;;230.40;2252.80;;;;;;5071565;28;20036;-62
2023/12/25 05:13:10;;;;;;;11.40;5.95;;;230.40;2252.80;;;;;;5071506;28;20031;-63
2023/12/25 05:15:36;;;;;;;8.73;5.07;;;230.50;2252.80;;;;;;5071557;28;20056;-63
2023/12/25 05:18:02;;;;;;;34.03;16.08;;;230.50;2252.80;;;;;;5071763;28;20501;-63
2023/12/25 05:20:28;;;;;;;12.93;8.27;;;230.50;2252.80;;;;;;5070950;28;20475;-67
2023/12/25 05:22:53;;;;;;;80.65;39.65;;;230.50;2252.80;;;;;;5071403;28;20023;-63
2023/12/25 05:25:19;;;;;;;14.95;8.05;;;230.60;2252.80;;;;;;5071422;28;20028;-64
2023/12/25 05:27:45;;;;;;;16.10;8.48;;;230.80;2252.80;;;;;;5071851;28;20024;-69
2023/12/25 05:30:11;;;;;;;66.15;33.00;;;230.70;2252.80;;;;;;5071146;28;20378;-63
2023/12/25 05:32:37;;;;;;;23.70;12.20;;;230.80;2252.80;;;;;;5071028;28;20505;-63
2023/12/25 05:35:04;;;;;;;26.00;12.32;;;230.70;2252.80;;;;;;5052957;28;20497;-63
2023/12/25 05:37:33;;;;;;;10.85;6.07;;;230.60;2252.80;;;;;;5070795;28;20410;-63
2023/12/25 05:40:00;;;;;;;40.20;19.95;;;230.50;2252.80;;;;;;5070937;28;20039;-64
2023/12/25 05:42:26;;;;;;;14.68;7.93;;;230.40;2252.80;;;;;;5074832;28;20024;-64
2023/12/25 05:44:52;;;;;;;9.02;5.40;;;205.70;2252.80;;;;;;5071084;28;20031;-64
2023/12/25 05:47:17;;;;;;;8.13;4.72;;;205.70;2252.80;;;;;;5070628;28;20108;-64
2023/12/25 05:49:43;;;;;;;8.48;4.18;;;230.40;2252.80;;;;;;5071023;28;20025;-63
2023/12/25 05:52:09;;;;;;;9.00;6.07;;;230.40;2252.80;;;;;;5070778;28;20020;-64
2023/12/25 05:54:35;;;;;;;8.52;4.72;;;230.60;2252.80;;;;;;5070701;28;20024;-63
2023/12/25 05:57:00;;;;;;;10.70;5.68;;;230.70;2252.80;;;;;;5070649;28;20032;-64
2023/12/25 05:59:26;;;;;;;25.38;21.73;;;230.80;2252.80;;;;;;5070518;28;20119;-64
2023/12/25 06:01:52;;;;;;;19.50;11.73;;;230.80;2252.80;;;;;;5074468;28;20036;-63
2023/12/25 06:04:17;;;;;;;18.13;12.32;;;230.80;2252.80;;;;;;5070225;28;20016;-64
2023/12/25 06:06:44;;;;;;;15.38;10.27;;;230.70;2252.80;;;;;;5071663;28;20021;-63
2023/12/25 06:09:11;;;;;;;12.60;9.07;;;230.40;2252.80;;;;;;5075325;28;20471;-64
2023/12/25 06:11:38;;;;;;;11.93;6.55;;;205.50;2252.80;;;;;;5070509;28;20424;-63
2023/12/25 06:14:04;;;;;;;7.72;3.65;;;205.70;2252.80;;;;;;5070441;28;20016;-63
2023/12/25 06:16:30;;;;;;;11.77;5.80;;;230.60;2252.80;;;;;;5070173;28;20072;-63
2023/12/25 06:18:56;;;;;;;6.30;2.95;;;230.80;2252.80;;;;;;5070087;28;20031;-64
2023/12/25 06:21:22;;;;;;;6.53;2.47;;;231.00;2252.80;;;;;;5070431;28;20020;-63
2023/12/25 06:23:48;;;;;;;12.45;7.35;;;231.30;2252.80;;;;;;5069974;28;20116;-63
2023/12/25 06:26:13;;;;;;;84.50;53.55;;;256.00;2252.80;;;;;;5069931;28;20099;-63
2023/12/25 06:28:39;;;;;;;147.25;95.90;;;231.10;2252.80;;;;;;5069850;28;20047;-62
2023/12/25 06:31:06;;;;;;;68.07;44.60;;;230.70;2252.80;;;;;;5052719;28;20020;-63
2023/12/25 06:33:33;;;;;;;46.33;30.20;;;230.60;2252.80;;;;;;5069912;28;20048;-63
2023/12/25 06:35:59;;;;;;;25.20;16.45;;;230.70;2252.80;;;;;;5051420;28;20124;-67
2023/12/25 06:38:25;;;;;;;14.90;11.77;;;230.80;2252.80;;;;;;5068682;28;20482;-70
2023/12/25 06:40:50;;;;;;;10.40;5.63;;;231.00;2252.80;;;;;;5067719;28;20033;-62
2023/12/25 06:43:16;;;;;;;15.68;9.20;;;231.30;2252.80;;;;;;5066032;28;20602;-66
2023/12/25 06:45:42;;;;;;;24.98;10.63;;;256.20;2252.80;;;;;;5054264;28;20036;-62
2023/12/25 06:48:08;;;;;;;28.13;16.60;;;256.40;2252.80;;;;;;5057274;28;20024;-68
2023/12/25 06:50:34;;;;;;;20.70;12.07;;;256.30;2252.80;;;;;;5058923;28;20020;-63
2023/12/25 06:53:00;;;;;;;11.65;6.70;;;256.10;2252.80;;;;;;5069432;28;20139;-62
2023/12/25 06:55:26;;;;;;;12.15;7.25;;;256.00;2252.80;;;;;;5069494;28;20112;-64
2023/12/25 06:57:52;;;;;;;9.38;6.55;;;231.30;2252.80;;;;;;5069641;28;20145;-64
2023/12/25 07:00:18;;;;;;;8.57;4.85;;;231.20;2252.80;;;;;;5069399;28;20020;-63
2023/12/25 07:02:43;;;;;;;9.98;6.50;;;231.30;2252.80;;;;;;5068984;28;20029;-64
2023/12/25 07:05:09;;;;;;;12.32;6.05;;;256.10;2252.80;;;;;;5074398;28;20055;-63
2023/12/25 07:07:35;;;;;;;8.77;4.97;;;256.10;2252.80;;;;;;5075807;28;20104;-70
2023/12/25 07:10:00;;;;;;;8.80;4.38;;;256.30;2252.80;;;;;;5080195;28;20032;-70
2023/12/25 07:12:26;;;;;;;14.23;5.18;;;256.50;2252.80;;;;;;5071656;28;20020;-68
2023/12/25 07:14:52;;;;;;;11.88;5.53;;;256.70;2252.80;;;;;;5064184;28;20069;-63
2023/12/25 07:17:18;;;;;;;7.13;5.13;;;256.70;2252.80;;;;;;5071948;28;20055;-62
2023/12/25 07:19:44;;;;;;;87.10;52.63;;;256.60;2252.80;;;;;;5069421;28;20471;-63
2023/12/25 07:22:11;;;;;;;52.83;32.15;;;256.80;2252.80;;;;;;5069044;28;20024;-64
2023/12/25 07:24:37;;;;;;;81.18;59.20;;;281.70;2278.40;;;;;;5069234;28;20107;-63
2023/12/25 07:27:04;;;;;;;36.60;28.98;;;281.70;2278.40;;;;;;5069386;28;20545;-63
2023/12/25 07:29:30;;;;;;;14.38;9.23;;;281.70;2278.40;;;;;;5068533;28;20508;-63
2023/12/25 07:31:57;;;;;;;58.38;29.77;;;281.70;2278.40;;;;;;5069232;28;20035;-65
2023/12/25 07:34:22;;;;;;;15.95;10.95;;;281.90;2278.40;;;;;;5068809;28;20024;-64
2023/12/25 07:36:49;;;;;;;18.67;12.13;;;281.90;2278.40;;;;;;5075389;28;20032;-63
2023/12/25 07:39:15;;;;;;;14.52;7.35;;;282.00;2252.80;;;;;;5068869;28;20051;-63
2023/12/25 07:41:46;;;;;;;25.73;16.92;;;282.10;2278.40;;;;;;5069132;28;20115;-63
2023/12/25 07:44:16;;;;;;;44.95;39.08;;;282.10;2278.40;;;;;;5051875;28;20032;-65
2023/12/25 07:46:41;;;;;;;36.85;29.05;;;282.10;2278.40;;;;;;5069121;28;20482;-63
2023/12/25 07:49:07;;;;;;;59.88;49.25;;;281.90;2278.40;;;;;;5071088;28;20036;-65
2023/12/25 07:51:33;;;;;;;206.60;136.02;;;281.90;2278.40;;;;;;5075796;28;20090;-66
2023/12/25 07:54:00;;;;;;;166.25;116.95;;;282.00;2278.40;;;;;;5065698;28;20478;-66
2023/12/25 07:56:26;;;;;;;62.92;46.78;;;282.10;2278.40;;;;;;5068978;28;20506;-65
2023/12/25 07:58:51;;;;;;;40.97;32.55;;;282.20;2278.40;;;;;;5068758;28;20024;-66
2023/12/25 08:01:22;;;;;;;55.70;41.00;;;282.30;2278.40;;;;;;5069050;28;20025;-66
2023/12/25 08:03:49;;;;;;;22.48;17.75;;;282.40;2278.40;;;;;;5068607;28;20435;-63
2023/12/25 08:06:15;;;;;;;56.75;41.70;;;282.50;2278.40;;;;;;5061154;28;20044;-65
2023/12/25 08:08:41;;;;;;;25.85;20.33;;;307.40;2227.20;;;;;;5078363;28;20036;-63
2023/12/25 08:11:06;;;;;;;27.63;17.95;;;307.60;2227.20;;;;;;5068571;28;20032;-63
2023/12/25 08:13:32;;;;;;;54.72;35.20;;;307.90;2150.40;;;;;;5068778;28;20074;-64
2023/12/25 08:15:58;;;;;;;200.27;147.10;;;307.40;2304.00;;;;;;5075686;28;20421;-64
2023/12/25 08:18:24;;;;;;;115.68;80.50;;;282.10;2278.40;;;;;;5064454;28;20025;-63
2023/12/25 08:20:49;;;;;;;242.68;189.40;;;281.80;2278.40;;;;;;5070628;28;20029;-66
2023/12/25 08:23:15;;;;;;;118.25;83.82;;;281.90;2278.40;;;;;;5072510;28;20546;-65
2023/12/25 08:25:41;;;;;;;124.60;91.88;;;282.50;2278.40;;;;;;5068480;28;20430;-63
2023/12/25 08:28:07;;;;;;;104.88;76.25;;;332.80;2329.60;;;;;;5068341;28;20024;-64
2023/12/25 08:30:33;;;;;;;175.40;128.85;;;333.00;2278.40;;;;;;5068460;28;20154;-63
2023/12/25 08:32:59;;;;;;;160.65;113.93;;;308.10;2304.00;;;;;;5068571;28;20103;-66
2023/12/25 08:35:24;;;;;;;129.95;95.57;;;308.10;2304.00;;;;;;5068504;28;20466;-64
2023/12/25 08:37:50;;;;;;;131.13;91.70;;;308.10;2304.00;;;;;;5068182;28;20043;-66
2023/12/25 08:40:16;;;;;;;171.45;126.25;;;333.00;2278.40;;;;;;5069448;28;20044;-63
2023/12/25 08:42:42;;;;;;;212.55;152.82;;;333.20;2329.60;;;;;;5072079;28;20131;-65
2023/12/25 08:45:08;;;;;;;201.02;147.95;;;359.00;2252.80;;;;;;5071646;28;20025;-63
2023/12/25 08:47:34;;;;;;;156.68;119.57;;;410.30;2073.60;;;;;;5071800;28;20028;-66
2023/12/25 08:50:00;;;;;;;156.32;125.57;;;461.20;1894.40;;;;;;5058598;28;20040;-64
2023/12/25 08:52:25;;;;;;;233.85;195.63;;;487.00;1740.80;;;;;;5072056;28;20039;-65
2023/12/25 08:54:51;;;;;;;213.65;181.95;;;486.50;1817.60;;;;;;5058716;28;20043;-63
2023/12/25 08:57:17;;;;;;;201.70;166.98;;;512.60;1740.80;;;;;;5072140;28;20028;-63
2023/12/25 08:59:43;;;;;;;173.75;145.68;;;538.20;1664.00;;;;;;5071656;28;20467;-64
2023/12/25 09:02:09;;;;;;;158.65;139.65;;;563.60;1587.20;;;;;;5071318;28;20025;-66
2023/12/25 09:04:35;;;;;;;176.80;158.00;;;588.80;1536.00;;;;;;5071727;28;20031;-64
2023/12/25 09:07:01;;;;;;;175.10;155.70;;;589.30;1484.80;;;;;;5071543;28;20033;-65
2023/12/25 09:09:26;;;;;;;193.05;163.90;;;563.40;1561.60;;;;;;5071409;28;20138;-64
2023/12/25 09:11:52;;;;;;;168.15;149.43;;;538.40;1587.20;;;;;;5071634;28;20501;-65
2023/12/25 09:14:20;;;;;;;186.48;166.30;;;589.40;1484.80;;;;;;5071019;28;20029;-66
2023/12/25 09:16:46;;;;;;;189.20;169.40;;;589.70;1510.40;;;;;;5071401;28;20115;-65
2023/12/25 09:19:12;;;;;;;126.20;109.55;;;615.20;1459.20;;;;;;5071610;28;20147;-64
2023/12/25 09:21:39;;;;;;;121.65;99.63;;;615.30;1433.60;;;;;;5071061;28;20115;-66
2023/12/25 09:24:05;;;;;;;127.35;110.30;;;615.30;1408.00;;;;;;5071266;28;20021;-64
2023/12/25 09:26:31;;;;;;;97.80;79.32;;;614.60;1433.60;;;;;;5071160;28;20032;-65
2023/12/25 09:28:57;;;;;;;104.60;78.95;;;589.30;1484.80;;;;;;5071157;28;20044;-64
2023/12/25 09:31:23;;;;;;;328.70;279.65;;;563.60;1484.80;;;;;;5071296;28;20021;-64
2023/12/25 09:33:48;;;;;;;298.17;256.52;;;512.10;1638.40;;;;;;5070981;28;20021;-63
2023/12/25 09:36:14;;;;;;;186.93;146.55;;;486.40;1740.80;;;;;;5071164;28;20075;-63
2023/12/25 09:38:40;;;;;;;162.90;131.93;;;460.80;1792.00;;;;;;5077924;28;20390;-64
2023/12/25 09:41:16;;;;;;;116.90;92.15;;;435.40;1817.60;;;;;;5075417;28;20505;-64
2023/12/25 09:43:45;;;;;;;112.85;88.03;;;410.30;1817.60;;;;;;5070860;28;20033;-63
2023/12/25 09:46:11;;;;;;;149.70;113.43;;;410.20;1817.60;;;;;;5070778;28;20115;-63
2023/12/25 09:48:38;;;;;;;229.57;159.98;;;409.90;1920.00;;;;;;5070527;28;20016;-63
2023/12/25 09:51:05;;;;;;;177.60;133.43;;;384.80;1945.60;;;;;;5070165;28;20028;-63
2023/12/25 09:53:31;;;;;;;218.25;154.68;;;384.60;2022.40;;;;;;5070946;28;20056;-63
2023/12/25 09:55:59;;;;;;;159.07;115.28;;;384.50;2022.40;;;;;;5059565;28;20059;-65
2023/12/25 09:58:27;;;;;;;138.15;99.65;;;384.40;2022.40;;;;;;5050534;28;20021;-63
2023/12/25 10:00:54;;;;;;;138.55;95.95;;;384.40;1971.20;;;;;;5060347;28;20028;-63
2023/12/25 10:03:20;;;;;;;103.82;73.85;;;384.60;1945.60;;;;;;5070342;28;20028;-63
2023/12/25 10:05:46;;;;;;;165.98;108.30;;;384.60;1920.00;;;;;;5070639;28;20036;-64
2023/12/25 10:08:12;;;;;;;163.52;114.47;;;384.70;1945.60;;;;;;5070274;28;20112;-63
2023/12/25 10:10:38;;;;;;;127.53;92.53;;;384.70;1945.60;;;;;;5069975;28;20024;-64
2023/12/25 10:13:04;;;;;;;146.68;108.53;;;384.70;1920.00;;;;;;5070381;28;20025;-64
2023/12/25 10:15:30;;;;;;;166.73;102.20;;;384.80;1945.60;;;;;;5068090;28;20036;-63
2023/12/25 10:18:06;;;;;;;184.25;105.72;;;384.90;1894.40;;;;;;5052418;28;20025;-66
2023/12/25 10:20:32;;;;;;;98.30;60.58;;;409.70;1920.00;;;;;;5071134;28;20035;-63
2023/12/25 10:22:59;;;;;;;63.22;43.08;;;409.70;1894.40;;;;;;5089397;28;20020;-63
2023/12/25 10:25:30;;;;;;;55.85;37.97;;;409.90;1894.40;;;;;;5085394;28;20032;-63
2023/12/25 10:28:09;;;;;;;42.58;33.28;;;410.00;1843.20;;;;;;5066080;28;20028;-63
2023/12/25 10:30:35;;;;;;;60.08;40.03;;;410.10;1817.60;;;;;;5076632;28;20052;-63
2023/12/25 10:33:13;;;;;;;65.47;44.22;;;410.20;1792.00;;;;;;5063000;28;20093;-63
2023/12/25 10:35:39;;;;;;;65.32;44.33;;;410.30;1766.40;;;;;;5088186;28;20062;-63
2023/12/25 10:38:06;;;;;;;48.15;37.33;;;410.50;1817.60;;;;;;5069525;28;20083;-64
2023/12/25 10:40:32;;;;;;;36.35;25.55;;;410.50;1792.00;;;;;;5069797;28;20086;-63
2023/12/25 10:42:59;;;;;;;18.50;11.15;;;410.50;1740.80;;;;;;5069782;28;20373;-65
2023/12/25 10:45:26;;;;;;;241.63;148.63;;;435.20;1638.40;;;;;;5069703;28;20158;-64
2023/12/25 10:47:53;;;;;;;133.95;99.63;;;435.20;1766.40;;;;;;5069285;28;20023;-63
2023/12/25 10:50:26;;;;;;;139.77;101.88;;;410.50;1843.20;;;;;;5069510;28;20032;-64
2023/12/25 10:52:54;;;;;;;137.95;101.95;;;410.50;1843.20;;;;;;5069414;28;20489;-64
2023/12/25 10:55:28;;;;;;;130.88;99.72;;;410.50;1868.80;;;;;;5073011;28;20029;-64
2023/12/25 10:57:55;;;;;;;100.97;75.00;;;410.50;1894.40;;;;;;5071306;28;20024;-64
2023/12/25 11:00:22;;;;;;;90.63;65.97;;;410.50;1868.80;;;;;;5065032;28;20175;-63
2023/12/25 11:02:52;;;;;;;80.10;61.28;;;410.50;1868.80;;;;;;5068811;28;20031;-63
2023/12/25 11:05:20;;;;;;;91.53;66.45;;;410.50;1894.40;;;;;;5069255;28;20078;-63
2023/12/25 11:07:46;;;;;;;110.85;74.43;;;410.50;1868.80;;;;;;5069342;28;20126;-63
2023/12/25 11:10:13;;;;;;;94.97;68.93;;;435.30;1868.80;;;;;;5069470;28;20488;-63
2023/12/25 11:12:39;;;;;;;75.97;58.67;;;435.30;1868.80;;;;;;5069113;28;20023;-64
2023/12/25 11:15:08;;;;;;;83.10;55.40;;;435.40;1868.80;;;;;;5069600;28;20127;-63
2023/12/25 11:17:36;;;;;;;84.80;60.17;;;435.40;1843.20;;;;;;5069450;28;20091;-64
2023/12/25 11:20:04;;;;;;;75.07;49.65;;;435.40;1843.20;;;;;;5069276;28;20032;-64
2023/12/25 11:22:33;;;;;;;82.25;52.95;;;435.40;1843.20;;;;;;5069005;28;20013;-64
2023/12/25 11:25:01;;;;;;;61.88;42.63;;;435.50;1817.60;;;;;;5070757;28;20055;-64
2023/12/25 11:27:27;;;;;;;64.82;46.25;;;435.50;1817.60;;;;;;5068935;28;20024;-64
2023/12/25 11:30:03;;;;;;;44.75;31.05;;;435.50;1817.60;;;;;;5069203;28;20017;-64
2023/12/25 11:32:32;;;;;;;64.82;40.13;;;435.60;1766.40;;;;;;5068672;28;20023;-64
2023/12/25 11:34:58;;;;;;;66.47;45.63;;;435.60;1792.00;;;;;;5068998;28;20093;-64
2023/12/25 11:37:24;;;;;;;45.38;33.60;;;435.60;1792.00;;;;;;5068855;28;20060;-65
2023/12/25 11:39:59;;;;;;;62.28;43.28;;;435.60;1766.40;;;;;;5068880;28;20076;-63
2023/12/25 11:42:26;;;;;;;45.60;34.92;;;435.60;1792.00;;;;;;5069013;28;20017;-63
2023/12/25 11:45:11;;;;;;;37.78;28.45;;;435.60;1792.00;;;;;;5069275;28;20074;-65
2023/12/25 11:47:40;;;;;;;24.35;14.15;;;435.80;1792.00;;;;;;5068595;28;20017;-64
2023/12/25 11:50:12;;;;;;;45.15;29.05;;;435.90;1715.20;;;;;;5062449;28;20531;-64
2023/12/25 11:52:44;;;;;;;44.40;25.15;;;436.00;1740.80;;;;;;5063144;28;20029;-64
2023/12/25 11:55:14;;;;;;;31.70;21.95;;;436.10;1715.20;;;;;;5061831;28;20074;-63
2023/12/25 11:57:43;;;;;;;34.33;21.42;;;436.10;1689.60;;;;;;5049047;28;20064;-63